Time;durP1;ratioP1;P1;durP2;ratioP2;P2;SDS_P1;SDS_P2;PMS_P1;PMS_P2;Temp;Humidity;BMP_temperature;BMP_pressure;BME280_temperature;BME280_humidity;BME280_pressure;Samples;Min_cycle;Max_cycle;Signal;HPM_P1;HPM_P2
2022/06/29 00:00:22;;;;;;;8.85;2.88;;;;;;;15.28;46.77;100479.03;4978801;28;20046;-66
2022/06/29 00:02:49;;;;;;;10.65;2.88;;;;;;;15.22;46.76;100482.09;4984646;28;20054;-67
2022/06/29 00:05:18;;;;;;;10.07;2.67;;;;;;;15.25;46.70;100476.84;4982725;28;20050;-67
2022/06/29 00:07:45;;;;;;;15.30;4.18;;;;;;;15.22;46.80;100477.44;4981202;28;20074;-66
2022/06/29 00:10:12;;;;;;;13.63;3.40;;;;;;;15.27;46.79;100491.16;4981689;28;20478;-67
2022/06/29 00:12:39;;;;;;;11.57;2.78;;;;;;;15.27;46.60;100487.56;4982729;28;20054;-67
2022/06/29 00:15:08;;;;;;;11.30;2.90;;;;;;;15.18;46.76;100492.88;4983935;28;20050;-65
2022/06/29 00:17:34;;;;;;;10.18;2.95;;;;;;;15.11;46.91;100487.69;4966760;28;20463;-66
2022/06/29 00:20:02;;;;;;;13.00;3.00;;;;;;;15.10;46.96;100490.75;4982650;28;20429;-67
2022/06/29 00:22:30;;;;;;;10.43;3.05;;;;;;;15.05;46.93;100497.13;4963701;28;20338;-67
2022/06/29 00:24:56;;;;;;;12.20;3.05;;;;;;;14.99;46.89;100487.28;4964066;28;20053;-66
2022/06/29 00:27:23;;;;;;;13.10;2.87;;;;;;;14.92;47.24;100484.84;4963835;28;20057;-67
2022/06/29 00:29:50;;;;;;;12.93;3.10;;;;;;;14.90;47.41;100484.28;4965153;28;20063;-67
2022/06/29 00:32:18;;;;;;;10.18;2.85;;;;;;;14.91;47.34;100483.22;4964589;28;20055;-66
2022/06/29 00:34:44;;;;;;;7.55;2.55;;;;;;;14.87;47.33;100474.69;4961285;28;20042;-67
2022/06/29 00:37:10;;;;;;;9.98;2.92;;;;;;;14.85;47.63;100492.59;4962275;28;20462;-67
2022/06/29 00:39:36;;;;;;;13.48;2.45;;;;;;;14.85;47.61;100487.09;4964615;28;20277;-67
2022/06/29 00:42:03;;;;;;;9.10;2.83;;;;;;;14.81;47.53;100488.78;4964693;28;20130;-67
2022/06/29 00:44:29;;;;;;;12.27;2.92;;;;;;;14.78;47.86;100481.09;4968160;28;20050;-67
2022/06/29 00:46:57;;;;;;;10.15;2.60;;;;;;;14.77;47.95;100483.03;4983483;28;20421;-66
2022/06/29 00:49:26;;;;;;;18.13;3.45;;;;;;;14.74;48.12;100489.91;4971880;28;20058;-67
2022/06/29 00:52:01;;;;;;;11.45;2.80;;;;;;;14.66;48.40;100485.00;4961373;28;20467;-68
2022/06/29 00:54:31;;;;;;;10.35;2.70;;;;;;;14.63;48.55;100484.72;4964687;28;20526;-67
2022/06/29 00:56:59;;;;;;;12.55;2.78;;;;;;;14.66;48.73;100481.41;4962253;28;20085;-67
2022/06/29 00:59:27;;;;;;;8.38;3.17;;;;;;;14.63;48.40;100473.72;4981767;28;20509;-67
2022/06/29 01:01:53;;;;;;;13.70;3.38;;;;;;;14.67;48.74;100483.03;4982329;28;20055;-67
2022/06/29 01:04:19;;;;;;;10.73;3.08;;;;;;;14.65;48.67;100486.09;4968359;28;20526;-67
2022/06/29 01:06:47;;;;;;;21.02;3.42;;;;;;;14.65;48.77;100483.34;4963203;28;20055;-66
2022/06/29 01:09:12;;;;;;;;;;;;;;;14.69;48.61;100478.91;4962946;28;20065;-67
2022/06/29 01:11:38;;;;;;;12.75;2.97;;;;;;;14.68;48.20;100462.69;4962885;28;20032;-66
2022/06/29 01:14:05;;;;;;;8.25;2.90;;;;;;;14.65;48.76;100472.34;4963310;28;20102;-66
2022/06/29 01:16:31;;;;;;;12.63;2.60;;;;;;;14.69;48.71;100469.84;4963190;28;20051;-65
2022/06/29 01:18:57;;;;;;;11.48;2.55;;;;;;;14.71;48.62;100478.63;4969266;28;20342;-67
2022/06/29 01:21:26;;;;;;;13.40;2.78;;;;;;;14.72;48.68;100466.56;4982610;28;20046;-67
2022/06/29 01:23:53;;;;;;;9.32;3.00;;;;;;;14.71;48.73;100468.47;4980756;28;20085;-66
2022/06/29 01:26:19;;;;;;;;;;;;;;;14.72;48.84;100475.63;4964888;28;20486;-67
2022/06/29 01:28:46;;;;;;;9.05;2.90;;;;;;;14.57;48.73;100449.00;4962214;28;19937;-65
2022/06/29 01:31:14;;;;;;;7.68;2.55;;;;;;;14.74;48.77;100472.59;4963276;28;20054;-66
2022/06/29 01:33:39;;;;;;;;;;;;;;;14.74;48.76;100472.59;4963862;28;20210;-65
2022/06/29 01:36:06;;;;;;;12.98;3.03;;;;;;;14.75;48.74;100474.22;4961119;28;20412;-67
2022/06/29 01:38:33;;;;;;;7.90;2.88;;;;;;;14.78;48.66;100481.91;4964424;28;20068;-66
2022/06/29 01:41:00;;;;;;;12.60;2.80;;;;;;;14.81;48.80;100481.31;4961869;28;20042;-65
2022/06/29 01:43:26;;;;;;;;;;;;;;;14.83;48.68;100478.31;4963547;28;20134;-65
2022/06/29 01:45:52;;;;;;;12.40;3.00;;;;;;;14.81;48.83;100475.81;4962395;28;20045;-67
2022/06/29 01:48:18;;;;;;;14.57;2.75;;;;;;;14.80;48.87;100485.19;4961436;28;20181;-65
2022/06/29 01:50:44;;;;;;;12.30;2.85;;;;;;;14.88;48.77;100484.59;4961723;28;20125;-66
2022/06/29 01:53:10;;;;;;;10.07;2.70;;;;;;;14.88;48.67;100494.75;4945244;28;20456;-66
2022/06/29 01:55:36;;;;;;;10.25;2.92;;;;;;;14.84;49.16;100483.53;4960722;28;20066;-68
2022/06/29 01:58:04;;;;;;;15.65;2.95;;;;;;;14.93;49.05;100489.25;4964930;28;20061;-66
2022/06/29 02:00:30;;;;;;;9.05;2.60;;;;;;;14.94;48.76;100484.53;4967977;28;20067;-66
2022/06/29 02:02:56;;;;;;;15.73;3.17;;;;;;;14.92;48.68;100489.53;4967640;28;20273;-68
2022/06/29 02:05:22;;;;;;;8.88;2.53;;;;;;;14.92;48.74;100489.53;4966188;28;20050;-67
2022/06/29 02:07:48;;;;;;;9.63;2.85;;;;;;;15.01;48.60;100485.06;4967262;28;20062;-67
2022/06/29 02:10:14;;;;;;;9.82;2.70;;;;;;;15.07;48.43;100491.34;4965007;28;20055;-67
2022/06/29 02:12:40;;;;;;;10.00;3.10;;;;;;;15.12;48.49;100492.09;4966183;28;20051;-67
2022/06/29 02:15:09;;;;;;;18.10;2.90;;;;;;;15.13;48.46;100501.19;4967594;28;20146;-67
2022/06/29 02:17:35;;;;;;;9.68;2.58;;;;;;;15.11;48.60;100497.91;4965862;28;20074;-66
2022/06/29 02:20:01;;;;;;;12.23;3.08;;;;;;;15.15;48.59;100493.47;4967499;28;20043;-68
2022/06/29 02:22:29;;;;;;;12.23;2.65;;;;;;;15.19;48.50;100490.97;4965976;28;20078;-67
2022/06/29 02:24:55;;;;;;;14.10;2.88;;;;;;;15.24;48.35;100485.41;4965256;28;20057;-66
2022/06/29 02:27:21;;;;;;;9.75;2.60;;;;;;;15.23;48.23;100486.50;4948469;28;20057;-67
2022/06/29 02:29:47;;;;;;;10.48;3.10;;;;;;;15.21;48.32;100483.22;4967236;28;20047;-68
2022/06/29 02:34:59;;;;;;;11.57;3.53;;;;;;;15.35;48.27;100481.44;4976926;28;20054;-66
2022/06/29 02:37:25;;;;;;;14.07;3.13;;;;;;;15.43;48.14;100485.50;4986474;28;20525;-68
2022/06/29 02:39:51;;;;;;;7.78;2.53;;;;;;;15.44;48.29;100479.69;4997968;28;20057;-68
2022/06/29 02:42:19;;;;;;;8.00;2.63;;;;;;;15.49;48.48;100475.25;4983809;28;20057;-68
2022/06/29 02:44:46;;;;;;;18.40;5.57;;;;;;;15.52;48.39;100469.94;4983389;28;20069;-68
2022/06/29 02:47:13;;;;;;;9.68;2.78;;;;;;;15.55;48.08;100477.66;4985414;28;20046;-65
2022/06/29 02:49:40;;;;;;;12.35;3.00;;;;;;;15.47;48.06;100460.94;4985749;28;20097;-65
2022/06/29 02:52:07;;;;;;;12.25;3.10;;;;;;;15.60;48.41;100474.00;4983268;28;20053;-66
2022/06/29 02:54:33;;;;;;;12.77;3.63;;;;;;;15.67;48.74;100481.94;4983749;28;20133;-66
2022/06/29 02:56:59;;;;;;;14.80;3.45;;;;;;;15.71;48.59;100475.53;4983140;28;20057;-66
2022/06/29 02:59:25;;;;;;;13.52;3.42;;;;;;;15.74;48.48;100471.38;4975485;28;20042;-66
2022/06/29 03:01:51;;;;;;;11.65;3.30;;;;;;;15.76;48.56;100476.59;4963477;28;20047;-66
2022/06/29 03:04:17;;;;;;;14.18;3.22;;;;;;;15.78;48.21;100477.13;4964184;28;20047;-67
2022/06/29 03:06:45;;;;;;;10.70;3.20;;;;;;;15.84;48.23;100481.47;4965001;28;20039;-67
2022/06/29 03:09:11;;;;;;;9.98;2.70;;;;;;;15.90;47.91;100477.56;4965313;28;20395;-66
2022/06/29 03:11:37;;;;;;;7.93;2.88;;;;;;;15.94;47.54;100480.56;4965046;28;20483;-66
2022/06/29 03:14:04;;;;;;;8.23;2.80;;;;;;;16.01;47.57;100479.09;4966163;28;20067;-66
2022/06/29 03:16:30;;;;;;;9.23;2.65;;;;;;;16.07;47.04;100467.97;4963905;28;20579;-66
2022/06/29 03:18:56;;;;;;;14.85;2.90;;;;;;;16.08;47.04;100473.22;4962622;28;20554;-66
2022/06/29 03:21:22;;;;;;;10.38;3.95;;;;;;;16.13;46.67;100469.56;4967817;28;20046;-65
2022/06/29 03:23:49;;;;;;;11.18;2.97;;;;;;;16.15;46.57;100462.63;4967938;28;20109;-65
2022/06/29 03:26:15;;;;;;;;;;;;;;;16.23;46.30;100469.41;4963707;28;20050;-66
2022/06/29 03:28:41;;;;;;;10.00;3.08;;;;;;;16.29;45.92;100464.66;4963983;28;20401;-67
2022/06/29 03:31:07;;;;;;;10.32;3.22;;;;;;;16.31;45.90;100465.16;4963768;28;20549;-67
2022/06/29 03:33:33;;;;;;;14.48;2.80;;;;;;;16.36;45.40;100461.53;4964338;28;20423;-67
2022/06/29 03:35:59;;;;;;;10.30;3.33;;;;;;;16.39;44.96;100464.50;4965630;28;20138;-66
2022/06/29 03:38:25;;;;;;;9.90;2.80;;;;;;;16.41;44.63;100466.97;4969203;28;20051;-65
2022/06/29 03:40:52;;;;;;;16.73;2.97;;;;;;;16.43;44.43;100465.56;4965474;28;20510;-66
2022/06/29 03:43:19;;;;;;;12.40;3.78;;;;;;;16.44;44.29;100466.38;4964567;28;20051;-64
2022/06/29 03:45:45;;;;;;;11.48;3.10;;;;;;;16.48;44.34;100467.41;4963703;28;20133;-67
2022/06/29 03:48:11;;;;;;;19.40;2.97;;;;;;;16.56;44.13;100461.25;4965510;28;20554;-67
2022/06/29 03:50:37;;;;;;;11.80;3.28;;;;;;;16.64;43.95;100462.50;4965895;28;20145;-66
2022/06/29 03:53:03;;;;;;;10.52;2.85;;;;;;;16.74;43.70;100461.53;4965957;28;20134;-66
2022/06/29 03:55:29;;;;;;;11.77;3.72;;;;;;;16.79;43.85;100471.66;4966087;28;20379;-67
2022/06/29 03:57:57;;;;;;;12.05;3.80;;;;;;;16.78;44.24;100461.72;4964038;28;20058;-66
2022/06/29 04:00:23;;;;;;;11.57;2.80;;;;;;;16.84;44.18;100464.09;4979550;28;20561;-68
2022/06/29 04:02:49;;;;;;;14.10;2.70;;;;;;;16.84;44.06;100460.53;4980634;28;20089;-67
2022/06/29 04:05:15;;;;;;;9.95;2.47;;;;;;;16.81;43.92;100459.19;4982362;28;20046;-66
2022/06/29 04:07:41;;;;;;;13.13;3.28;;;;;;;16.80;43.85;100449.25;4981608;28;20501;-66
2022/06/29 04:10:08;;;;;;;10.40;2.97;;;;;;;16.85;44.18;100459.41;4983590;28;20092;-65
2022/06/29 04:12:35;;;;;;;;;;;;;;;16.85;44.37;100454.69;4983982;28;20080;-66
2022/06/29 04:15:05;;;;;;;17.10;3.05;;;;;;;16.86;44.21;100458.28;4980753;28;19925;-67
2022/06/29 04:17:31;;;;;;;8.50;2.70;;;;;;;16.84;44.41;100447.53;4981557;28;20469;-67
2022/06/29 04:19:57;;;;;;;9.32;3.00;;;;;;;16.86;44.37;100447.25;4982417;28;20461;-67
2022/06/29 04:22:23;;;;;;;8.50;2.58;;;;;;;16.93;44.28;100446.84;4969616;28;20054;-66
2022/06/29 04:24:49;;;;;;;12.23;2.88;;;;;;;17.03;43.96;100455.00;4969875;28;20054;-66
2022/06/29 04:27:16;;;;;;;11.43;3.10;;;;;;;17.08;44.17;100448.56;4962912;28;20400;-67
2022/06/29 04:29:43;;;;;;;12.73;2.70;;;;;;;17.14;43.72;100444.59;4962924;28;20066;-66
2022/06/29 04:32:10;;;;;;;8.82;2.92;;;;;;;17.21;43.98;100445.00;4962042;28;20053;-67
2022/06/29 04:34:37;;;;;;;9.90;2.75;;;;;;;17.25;43.93;100445.22;4971810;28;20054;-66
2022/06/29 04:37:03;;;;;;;8.73;2.92;;;;;;;17.24;43.87;100446.34;4978937;28;20388;-65
2022/06/29 04:39:29;;;;;;;10.45;2.53;;;;;;;17.12;43.78;100421.97;4967925;28;20051;-65
2022/06/29 04:41:55;;;;;;;13.73;2.88;;;;;;;17.23;43.62;100428.94;4960932;28;20121;-66
2022/06/29 04:44:21;;;;;;;11.98;2.72;;;;;;;17.24;43.57;100438.88;4974945;28;20133;-66
2022/06/29 04:46:47;;;;;;;9.65;3.03;;;;;;;17.35;43.84;100445.03;4975400;28;20133;-64
2022/06/29 04:49:15;;;;;;;11.27;2.80;;;;;;;17.41;43.82;100449.34;4974216;28;20470;-66
2022/06/29 04:51:41;;;;;;;19.70;3.00;;;;;;;17.50;43.23;100451.41;4985775;28;20081;-68
2022/06/29 04:54:07;;;;;;;17.55;3.10;;;;;;;17.53;43.09;100457.13;4976135;28;20061;-66
2022/06/29 04:56:34;;;;;;;9.13;2.55;;;;;;;17.53;43.15;100440.53;4959185;28;20043;-66
2022/06/29 04:59:00;;;;;;;;;;;;;;;17.60;43.46;100450.38;4984452;28;20046;-66
2022/06/29 05:01:29;;;;;;;8.68;2.90;;;;;;;17.63;43.05;100447.00;4980884;28;19925;-66
2022/06/29 05:03:58;;;;;;;10.30;2.55;;;;;;;17.69;42.91;100452.13;4986975;28;20046;-67
2022/06/29 05:06:26;;;;;;;10.63;2.90;;;;;;;17.71;42.19;100460.09;4981813;28;20061;-66
2022/06/29 05:08:56;;;;;;;10.77;2.72;;;;;;;17.70;42.39;100456.53;4983542;28;20050;-68
2022/06/29 05:11:22;;;;;;;9.73;2.50;;;;;;;17.74;42.10;100462.28;4974973;28;20066;-66
2022/06/29 05:13:49;;;;;;;7.83;2.30;;;;;;;17.78;41.67;100460.53;4969199;28;20051;-68
2022/06/29 05:16:15;;;;;;;9.55;2.20;;;;;;;17.83;41.59;100462.38;4968740;28;20319;-67
2022/06/29 05:18:41;;;;;;;12.75;2.40;;;;;;;17.81;41.36;100462.66;4974298;28;20132;-68
2022/06/29 05:21:09;;;;;;;9.70;3.00;;;;;;;17.85;41.38;100468.41;4969770;28;20051;-67
2022/06/29 05:23:36;;;;;;;;;;;;;;;17.94;41.31;100468.50;4966834;28;20133;-67
2022/06/29 05:26:02;;;;;;;;;;;;;;;18.01;40.85;100466.13;4980714;28;19953;-69
2022/06/29 05:28:28;;;;;;;11.68;2.60;;;;;;;18.07;40.35;100464.09;4982904;28;19960;-67
2022/06/29 05:30:54;;;;;;;8.45;2.20;;;;;;;18.16;39.42;100475.25;4978322;28;20078;-68
2022/06/29 05:33:20;;;;;;;9.48;2.25;;;;;;;18.19;39.05;100469.94;4985502;28;20077;-68
2022/06/29 05:35:46;;;;;;;8.38;2.22;;;;;;;18.22;38.55;100469.31;4968563;28;20051;-66
2022/06/29 05:38:12;;;;;;;8.27;1.98;;;;;;;18.26;38.60;100466.75;4966776;28;20439;-66
2022/06/29 05:40:42;;;;;;;8.05;1.90;;;;;;;18.31;37.66;100463.06;4984171;28;20138;-66
2022/06/29 05:43:08;;;;;;;9.80;2.10;;;;;;;18.28;37.25;100467.25;4986370;28;20054;-67
2022/06/29 05:45:34;;;;;;;17.20;2.20;;;;;;;18.28;38.04;100470.84;4971580;28;20413;-66
2022/06/29 05:48:00;;;;;;;16.13;2.95;;;;;;;18.35;37.78;100472.38;4984215;28;20050;-66
2022/06/29 05:50:26;;;;;;;10.23;2.38;;;;;;;18.40;37.57;100469.47;4969554;28;20109;-67
2022/06/29 05:52:52;;;;;;;20.10;2.40;;;;;;;18.41;37.63;100465.56;4966989;28;20141;-64
2022/06/29 05:55:19;;;;;;;13.93;2.30;;;;;;;18.51;37.01;100467.31;4980356;28;20094;-66
2022/06/29 05:57:46;;;;;;;24.65;2.95;;;;;;;18.55;36.85;100460.00;4977522;28;20197;-67
2022/06/29 06:00:13;;;;;;;12.07;3.05;;;;;;;18.60;37.17;100462.66;4967410;28;20214;-64
2022/06/29 06:02:39;;;;;;;28.58;4.13;;;;;;;18.63;37.12;100452.91;4963180;28;20085;-66
2022/06/29 06:05:07;;;;;;;10.05;3.05;;;;;;;18.62;37.19;100448.50;4964052;28;20042;-66
2022/06/29 06:07:33;;;;;;;13.65;2.58;;;;;;;18.64;37.76;100440.69;4966603;28;20408;-67
2022/06/29 06:09:59;;;;;;;18.75;2.50;;;;;;;18.72;37.36;100445.47;4966817;28;20047;-67
2022/06/29 06:12:25;;;;;;;7.75;2.55;;;;;;;18.75;36.64;100436.56;4967100;28;20046;-66
2022/06/29 06:14:53;;;;;;;13.38;2.42;;;;;;;18.66;36.75;100439.25;4982569;28;20137;-68
2022/06/29 06:17:20;;;;;;;19.17;2.50;;;;;;;18.68;37.00;100444.47;4966081;28;20050;-67
2022/06/29 06:19:46;;;;;;;19.70;3.05;;;;;;;18.77;36.41;100439.81;4966029;28;20422;-67
2022/06/29 06:22:12;;;;;;;46.22;4.22;;;;;;;18.85;36.16;100441.81;4979884;28;20057;-65
2022/06/29 06:24:39;;;;;;;8.27;2.10;;;;;;;18.93;35.71;100434.69;4987405;28;20137;-67
2022/06/29 06:27:05;;;;;;;14.32;2.80;;;;;;;19.07;35.63;100440.22;4984585;28;20186;-67
2022/06/29 06:29:31;;;;;;;8.60;2.28;;;;;;;19.25;35.06;100440.31;4983657;28;20034;-66
2022/06/29 06:31:59;;;;;;;19.73;2.42;;;;;;;19.40;34.66;100430.75;4986992;28;20133;-67
2022/06/29 06:34:26;;;;;;;12.85;2.47;;;;;;;19.50;34.50;100435.19;4981328;28;20137;-68
2022/06/29 06:36:52;;;;;;;14.07;2.20;;;;;;;19.67;34.49;100426.97;4980187;28;20050;-66
2022/06/29 06:39:19;;;;;;;59.40;5.47;;;;;;;19.82;34.67;100433.16;4985681;28;20061;-68
2022/06/29 06:41:45;;;;;;;42.08;4.65;;;;;;;20.02;34.38;100422.66;4985373;28;20132;-68
2022/06/29 06:44:11;;;;;;;13.00;2.78;;;;;;;20.14;33.69;100414.53;4974612;28;20046;-66
2022/06/29 06:46:37;;;;;;;9.27;2.08;;;;;;;20.22;33.98;100421.22;4987046;28;20058;-67
2022/06/29 06:49:05;;;;;;;106.32;10.07;;;;;;;20.35;33.96;100424.97;4979266;28;20053;-67
2022/06/29 06:51:31;;;;;;;26.50;2.92;;;;;;;20.49;34.00;100413.69;4976688;28;20050;-67
2022/06/29 06:53:57;;;;;;;15.00;2.90;;;;;;;20.57;33.80;100415.66;4981251;28;20055;-66
2022/06/29 06:56:23;;;;;;;16.90;2.80;;;;;;;20.62;33.79;100407.16;4977724;28;20050;-66
2022/06/29 06:58:49;;;;;;;16.55;2.70;;;;;;;20.68;33.62;100399.47;4993213;28;20509;-66
2022/06/29 07:01:15;;;;;;;18.25;3.55;;;;;;;20.81;33.35;100409.63;4981668;28;20545;-67
2022/06/29 07:03:41;;;;;;;14.83;2.50;;;;;;;21.01;33.30;100404.50;4972123;28;20043;-66
2022/06/29 07:06:10;;;;;;;9.82;2.90;;;;;;;21.05;32.82;100402.69;4965164;28;20141;-68
2022/06/29 07:08:38;;;;;;;27.58;4.20;;;;;;;21.09;33.13;100406.44;4963009;28;20063;-67
2022/06/29 07:11:06;;;;;;;10.88;2.45;;;;;;;21.14;32.92;100404.63;4962789;28;20146;-68
2022/06/29 07:13:35;;;;;;;33.90;4.20;;;;;;;21.32;32.30;100400.63;4977001;28;20050;-68
2022/06/29 07:16:03;;;;;;;11.38;2.35;;;;;;;21.39;32.31;100389.81;4981280;28;20750;-68
2022/06/29 07:18:29;;;;;;;8.63;2.20;;;;;;;21.45;32.34;100381.28;4965396;28;20419;-68
2022/06/29 07:20:56;;;;;;;9.03;2.57;;;;;;;21.53;32.16;100391.53;4976040;28;20057;-66
2022/06/29 07:23:23;;;;;;;13.30;3.60;;;;;;;21.57;32.13;100400.84;4981333;28;20046;-68
2022/06/29 07:25:49;;;;;;;21.27;4.05;;;;;;;21.62;32.13;100406.22;4985844;28;20708;-67
2022/06/29 07:28:15;;;;;;;18.70;3.17;;;;;;;21.68;31.85;100404.09;4980944;28;20506;-68
2022/06/29 07:30:42;;;;;;;18.13;3.35;;;;;;;21.76;31.55;100397.66;4984895;28;20077;-68
2022/06/29 07:33:10;;;;;;;33.73;3.40;;;;;;;22.00;31.55;100392.59;4983816;28;20042;-66
2022/06/29 07:35:37;;;;;;;27.15;4.10;;;;;;;22.15;30.68;100385.63;4973309;28;20357;-66
2022/06/29 07:38:03;;;;;;;30.13;4.03;;;;;;;22.17;30.33;100389.72;4982123;28;20413;-67
2022/06/29 07:40:31;;;;;;;10.27;2.20;;;;;;;22.12;30.01;100394.66;4975535;28;20054;-65
2022/06/29 07:42:59;;;;;;;14.52;2.20;;;;;;;22.12;29.39;100387.09;4987574;28;20058;-67
2022/06/29 07:45:28;;;;;;;23.95;3.67;;;;;;;22.28;29.22;100392.06;4649844;28;10000012;-67
2022/06/29 07:47:54;;;;;;;27.77;3.90;;;;;;;22.50;28.81;100397.31;4975620;28;20145;-68
2022/06/29 07:50:21;;;;;;;22.15;3.25;;;;;;;22.77;28.69;100397.88;4963473;28;20538;-68
2022/06/29 07:52:47;;;;;;;14.07;2.28;;;;;;;22.78;28.45;100391.13;4960846;28;20510;-68
2022/06/29 07:55:13;;;;;;;10.15;2.28;;;;;;;22.80;28.21;100394.41;4964117;28;20039;-66
2022/06/29 07:57:40;;;;;;;7.32;2.25;;;;;;;22.99;28.36;100393.06;4966971;28;20077;-68
2022/06/29 08:00:08;;;;;;;15.85;2.28;;;;;;;23.17;28.17;100390.88;4972693;28;20046;-68
2022/06/29 08:02:40;;;;;;;19.25;2.45;;;;;;;23.51;27.71;100383.28;4968592;28;20046;-67
2022/06/29 08:05:06;;;;;;;8.38;2.45;;;;;;;23.49;27.32;100380.03;4979660;28;20545;-69
2022/06/29 08:07:33;;;;;;;8.88;2.33;;;;;;;23.36;27.78;100379.19;4979856;28;20141;-66
2022/06/29 08:09:59;;;;;;;15.05;2.78;;;;;;;23.40;27.54;100376.53;4981147;28;20409;-66
2022/06/29 08:12:25;;;;;;;18.45;2.60;;;;;;;23.49;27.52;100371.66;4981231;28;20058;-66
2022/06/29 08:14:53;;;;;;;21.53;2.90;;;;;;;23.88;26.99;100357.31;4980057;28;20053;-67
2022/06/29 08:17:20;;;;;;;17.42;2.53;;;;;;;23.94;26.43;100355.88;4963394;28;20054;-68
2022/06/29 08:19:46;;;;;;;13.38;2.42;;;;;;;23.99;26.65;100354.00;4965006;28;20057;-68
2022/06/29 08:22:12;;;;;;;15.55;2.30;;;;;;;24.20;26.04;100356.66;4971945;28;20046;-67
2022/06/29 08:24:38;;;;;;;27.20;3.35;;;;;;;24.52;25.41;100362.34;4977956;28;20073;-66
2022/06/29 08:27:04;;;;;;;25.92;5.15;;;;;;;24.90;24.83;100358.22;4968282;28;20050;-68
2022/06/29 08:29:31;;;;;;;15.73;2.78;;;;;;;24.84;24.83;100356.03;4961581;28;20050;-68
2022/06/29 08:31:58;;;;;;;22.67;3.83;;;;;;;24.94;25.13;100355.50;4944587;28;20050;-68
2022/06/29 08:34:39;;;;;;;19.50;3.05;;;;;;;25.21;25.19;100350.19;4962067;28;20109;-68
2022/06/29 08:37:06;;;;;;;11.10;3.00;;;;;;;25.79;24.62;100348.75;4961146;28;20042;-68
2022/06/29 08:39:32;;;;;;;8.57;2.10;;;;;;;26.41;23.57;100352.88;4960253;28;20078;-68
2022/06/29 08:42:03;;;;;;;14.52;2.45;;;;;;;26.81;22.70;100345.19;4960581;28;20534;-67
2022/06/29 08:44:32;;;;;;;10.52;2.15;;;;;;;26.84;22.44;100352.84;4969317;28;20049;-68
2022/06/29 08:47:01;;;;;;;32.55;4.53;;;;;;;26.40;23.02;100343.66;4960775;28;20058;-68
2022/06/29 08:49:28;;;;;;;11.68;2.53;;;;;;;26.22;23.48;100334.88;4957381;28;20197;-67
2022/06/29 08:51:56;;;;;;;12.93;2.83;;;;;;;26.08;23.44;100342.97;4978779;28;20149;-66
2022/06/29 08:54:25;;;;;;;80.72;7.88;;;;;;;25.91;23.34;100337.44;4981913;28;20045;-68
2022/06/29 08:56:51;;;;;;;22.35;3.60;;;;;;;25.81;23.98;100331.56;4964615;28;20141;-68
2022/06/29 08:59:19;;;;;;;13.23;2.53;;;;;;;25.82;23.50;100327.59;4978516;28;20056;-68
2022/06/29 09:01:45;;;;;;;18.35;2.60;;;;;;;26.10;23.64;100330.22;4983111;28;20046;-67
2022/06/29 09:04:12;;;;;;;19.15;2.75;;;;;;;26.64;23.29;100338.09;4971606;28;20124;-67
2022/06/29 09:06:39;;;;;;;14.35;2.80;;;;;;;26.96;22.57;100319.03;4982456;28;20102;-68
2022/06/29 09:09:05;;;;;;;22.88;4.53;;;;;;;27.41;22.19;100319.38;4975695;28;20110;-69
2022/06/29 09:11:32;;;;;;;20.73;2.90;;;;;;;27.65;21.62;100322.94;4986948;28;20045;-68
2022/06/29 09:14:09;;;;;;;;;;;;;;;27.78;21.69;100326.31;4980110;28;20145;-68
2022/06/29 09:16:52;;;;;;;17.75;2.95;;;;;;;27.91;21.36;100312.03;4981951;28;20017;-68
2022/06/29 09:19:20;;;;;;;61.40;6.38;;;;;;;27.91;20.88;100320.47;4975666;28;20646;-66
2022/06/29 09:21:46;;;;;;;31.52;3.70;;;;;;;27.96;20.57;100318.13;4979624;28;20082;-68
2022/06/29 09:24:16;;;;;;;13.80;2.83;;;;;;;28.23;20.24;100312.47;4968334;28;20485;-68
2022/06/29 09:26:42;;;;;;;24.08;3.28;;;;;;;28.10;20.21;100308.28;4971436;28;20058;-68
2022/06/29 09:29:19;;;;;;;112.05;11.90;;;;;;;27.99;20.79;100325.81;4977453;28;20146;-67
2022/06/29 09:32:09;;;;;;;29.40;4.82;;;;;;;28.63;19.87;100323.31;5001896;28;20063;-68
2022/06/29 09:34:39;;;;;;;12.40;2.70;;;;;;;29.29;18.73;100301.00;4988030;28;20097;-68
2022/06/29 09:37:06;;;;;;;11.20;2.75;;;;;;;29.99;18.44;100322.75;4987419;28;20097;-67
2022/06/29 09:39:34;;;;;;;90.68;10.52;;;;;;;30.22;18.24;100306.75;4977303;28;20054;-69
2022/06/29 09:42:01;;;;;;;25.52;3.53;;;;;;;30.30;18.16;100307.59;4968864;28;20147;-68
2022/06/29 09:44:28;;;;;;;29.33;4.53;;;;;;;30.74;17.61;100300.84;4968195;28;20048;-69
2022/06/29 09:46:55;;;;;;;14.70;2.90;;;;;;;30.97;17.55;100310.91;4969887;28;20074;-68
2022/06/29 09:49:25;;;;;;;36.03;5.35;;;;;;;31.33;17.46;100310.13;4972743;28;20049;-66
2022/06/29 09:51:55;;;;;;;16.85;2.92;;;;;;;31.78;16.41;100316.09;4969060;28;20057;-68
2022/06/29 09:54:24;;;;;;;17.90;2.67;;;;;;;31.91;16.42;100310.00;4975848;28;20034;-66
2022/06/29 09:56:52;;;;;;;20.27;5.60;;;;;;;31.57;16.58;100311.28;4984961;28;20053;-67
2022/06/29 10:02:34;;;;;;;16.80;2.75;;;;;;;31.52;16.37;100306.84;4986018;28;20119;-68
2022/06/29 10:02:34;;;;;;;14.98;3.03;;;;;;;31.86;16.03;100311.22;4987375;28;20047;-67
2022/06/29 10:05:03;;;;;;;44.20;5.32;;;;;;;31.80;16.03;100312.88;4987271;28;20054;-68
2022/06/29 10:07:33;;;;;;;88.40;9.52;;;;;;;32.02;15.81;100313.59;4970164;28;20049;-69
2022/06/29 10:10:00;;;;;;;28.05;4.13;;;;;;;32.27;15.02;100309.03;4967311;28;20537;-69
2022/06/29 10:15:40;;;;;;;9.90;2.50;;;;;;;32.88;14.94;100300.13;4963915;28;20153;-66
2022/06/29 10:18:16;;;;;;;10.27;2.63;;;;;;;32.81;15.17;100308.69;4966325;28;20108;-68
2022/06/29 10:20:46;;;;;;;10.27;2.50;;;;;;;32.88;15.26;100316.31;4965718;28;20057;-68
2022/06/29 10:23:47;;;;;;;12.63;2.58;;;;;;;33.49;14.55;100315.00;4967246;28;20104;-68
2022/06/29 10:26:50;;;;;;;11.00;2.75;;;;;;;33.17;14.47;100307.59;4984174;28;20046;-67
2022/06/29 10:29:33;;;;;;;10.98;2.78;;;;;;;33.35;14.50;100299.75;4983605;28;20046;-68
2022/06/29 10:32:11;;;;;;;17.08;2.88;;;;;;;33.43;14.25;100300.47;4980172;28;20047;-68
2022/06/29 10:35:07;;;;;;;9.50;2.75;;;;;;;34.00;13.56;100284.03;4983133;28;20598;-68
2022/06/29 10:37:24;;;;;;;11.38;2.97;;;;;;;34.45;13.26;100285.84;4968552;28;20051;-67
2022/06/29 10:39:53;;;;;;;15.18;3.20;;;;;;;34.46;13.36;100286.63;4967049;28;20055;-68
2022/06/29 10:45:32;;;;;;;12.32;2.50;;;;;;;34.98;12.96;100290.31;4973289;28;20057;-67
2022/06/29 10:48:20;;;;;;;11.07;2.70;;;;;;;34.16;13.36;100291.94;4967730;28;20050;-68
2022/06/29 10:50:46;;;;;;;10.07;2.63;;;;;;;34.17;13.70;100278.53;4960864;28;20114;-68
2022/06/29 10:53:15;;;;;;;7.07;2.60;;;;;;;33.99;13.86;100281.66;4959482;28;20066;-67
2022/06/29 10:55:44;;;;;;;7.88;2.83;;;;;;;34.01;13.77;100277.13;4963168;28;20055;-67
2022/06/29 10:58:11;;;;;;;6.53;2.83;;;;;;;34.46;13.16;100275.28;4969505;28;20113;-68
2022/06/29 11:00:39;;;;;;;10.35;2.97;;;;;;;34.97;12.78;100269.63;4986137;28;20081;-67
2022/06/29 11:03:07;;;;;;;6.97;2.60;;;;;;;35.04;12.40;100271.56;4986339;28;20510;-67
2022/06/29 11:05:34;;;;;;;10.00;2.60;;;;;;;35.19;12.38;100274.91;4969469;28;20046;-67
2022/06/29 11:13:21;;;;;;;15.95;2.90;;;;;;;35.08;12.73;100265.81;4974210;28;20051;-66
2022/06/29 11:15:49;;;;;;;12.30;2.88;;;;;;;35.32;12.82;100266.59;4980709;28;20138;-67
2022/06/29 11:18:17;;;;;;;101.22;10.35;;;;;;;35.28;13.40;100265.81;4985565;28;20053;-66
2022/06/29 11:20:44;;;;;;;32.00;4.55;;;;;;;35.55;12.94;100257.22;4983908;28;20054;-68
2022/06/29 11:23:12;;;;;;;14.32;3.10;;;;;;;35.96;12.33;100249.44;4980364;28;20046;-69
2022/06/29 11:25:39;;;;;;;21.35;3.25;;;;;;;35.65;12.58;100257.41;4966946;28;20450;-68
2022/06/29 11:28:07;;;;;;;23.25;3.13;;;;;;;35.67;12.36;100257.78;4966061;28;20121;-67
2022/06/29 11:30:33;;;;;;;7.05;2.60;;;;;;;36.00;12.26;100255.84;4969564;28;20059;-67
2022/06/29 11:33:06;;;;;;;;;;;;;;;36.13;11.89;100256.00;4982814;28;20054;-67
2022/06/29 11:35:32;;;;;;;48.05;7.47;;;;;;;36.11;11.92;100240.63;4986441;28;19932;-68
2022/06/29 11:38:01;;;;;;;21.98;4.63;;;;;;;36.77;11.58;100240.66;4983989;28;20062;-67